Kansas City, Missouri
Traffic Map
Current Weather Conditions
Kansas City, Missouri
Clear
Clear
65°
Feels Like: 65°
Wind Chill: 65° Ceiling: Unl
Heat Index: 65° Visibility: 10mi
Dew Point: 52° Wind: 7mph
Humidity: 63% Direction: 80° (E)
Pressure: 29.99in Gusts: 0mph
Raw Report DataKMKC 260254Z 08006KT 10SM CLR 18/11 A2999 RMK AO2 SLP154 T01830111 58001
Traffic Incident Summary
Active as of:
Severity:
Category:
InformationThere was an issue retrieving the traffic information for this location. Please try a different location or try again shortly.
Advertisements
Track Severe Weather on mobile